Time;durP1;ratioP1;P1;durP2;ratioP2;P2;SDS_P1;SDS_P2;PMS_P1;PMS_P2;Temp;Humidity;BMP_temperature;BMP_pressure;BME280_temperature;BME280_humidity;BME280_pressure;Samples;Min_cycle;Max_cycle;Signal;HPM_P1;HPM_P2
2023/07/24 00:00:57;;;;;;;10.07;7.10;;;;;;;23.55;52.43;98106.09;6985921;28;20320;-83
2023/07/24 00:04:19;;;;;;;8.07;6.93;;;;;;;23.92;51.92;98112.25;6984572;28;20703;-83
2023/07/24 00:07:40;;;;;;;10.80;7.83;;;;;;;23.32;52.46;98083.16;6983914;28;20287;-83
2023/07/24 00:11:05;;;;;;;9.47;7.17;;;;;;;22.96;54.08;98034.59;6984003;28;20231;-84
2023/07/24 00:14:26;;;;;;;8.57;6.93;;;;;;;22.99;53.24;97978.97;6983018;28;20226;-83
2023/07/24 00:17:48;;;;;;;9.37;7.20;;;;;;;23.25;52.38;98026.91;6982326;28;20277;-84
2023/07/24 00:21:10;;;;;;;8.50;7.17;;;;;;;23.58;52.35;98076.03;6983504;28;20255;-83
2023/07/24 00:24:32;;;;;;;9.50;7.47;;;;;;;22.92;54.61;98102.28;6983520;28;20201;-83
2023/07/24 00:27:55;;;;;;;9.00;7.37;;;;;;;23.09;53.97;98066.78;6982306;28;20235;-83
2023/07/24 00:31:16;;;;;;;10.50;7.40;;;;;;;23.87;51.36;98040.75;6983786;28;20246;-83
2023/07/24 00:34:38;;;;;;;11.00;7.00;;;;;;;23.55;53.41;98097.84;6983816;28;20691;-83
2023/07/24 00:37:59;;;;;;;8.10;7.17;;;;;;;23.70;53.04;98025.94;6981978;28;20293;-83
2023/07/24 00:41:21;;;;;;;10.47;7.30;;;;;;;23.50;54.09;98053.91;6982136;28;20370;-83
2023/07/24 00:44:44;;;;;;;9.70;7.57;;;;;;;23.42;54.60;98057.38;6981971;28;20206;-84
2023/07/24 00:48:06;;;;;;;9.93;7.33;;;;;;;23.68;53.49;98036.47;6980323;28;20236;-83
2023/07/24 00:51:28;;;;;;;9.27;7.20;;;;;;;23.79;52.33;98022.16;6967347;28;20310;-84
2023/07/24 00:54:50;;;;;;;8.13;7.17;;;;;;;23.32;52.76;97983.31;6980176;28;20213;-83
2023/07/24 00:58:12;;;;;;;9.57;6.90;;;;;;;23.47;52.23;97994.81;6981078;28;20210;-83
2023/07/24 01:01:35;;;;;;;9.30;7.27;;;;;;;23.24;51.47;97997.78;6978528;28;20287;-83
2023/07/24 01:04:56;;;;;;;8.43;6.63;;;;;;;23.21;50.38;97984.63;6966000;28;20666;-83
2023/07/24 01:08:18;;;;;;;8.30;6.63;;;;;;;23.26;49.79;97976.28;6943953;28;20210;-84
2023/07/24 01:11:42;;;;;;;9.00;6.83;;;;;;;23.59;48.87;97977.78;6969005;28;20549;-84
2023/07/24 01:15:09;;;;;;;9.50;7.17;;;;;;;23.17;49.00;97989.94;6972907;28;20198;-83
2023/07/24 01:18:32;;;;;;;7.93;6.93;;;;;;;23.72;47.82;97963.97;6972536;28;20246;-83
2023/07/24 01:22:03;;;;;;;7.93;6.43;;;;;;;23.74;47.55;97958.16;6961928;28;20301;-84
2023/07/24 01:25:31;;;;;;;10.20;7.07;;;;;;;23.59;47.91;97964.03;6945795;28;20205;-83
2023/07/24 01:28:53;;;;;;;7.50;6.63;;;;;;;22.84;48.90;97951.78;6945591;28;20287;-84
2023/07/24 01:32:15;;;;;;;8.47;6.83;;;;;;;23.32;48.20;97956.63;6969875;28;20234;-83
2023/07/24 01:35:37;;;;;;;8.37;6.87;;;;;;;23.39;46.67;97901.16;6956169;28;20731;-84
2023/07/24 01:38:59;;;;;;;8.53;6.73;;;;;;;23.83;46.68;97948.84;6945859;28;20229;-83
2023/07/24 01:42:20;;;;;;;7.70;6.10;;;;;;;23.83;46.62;97953.56;6946452;28;20229;-83
2023/07/24 01:45:43;;;;;;;9.37;6.40;;;;;;;23.83;46.79;97948.06;6946064;28;20397;-84
2023/07/24 01:49:05;;;;;;;7.83;7.03;;;;;;;24.07;46.00;97960.41;6946417;28;20231;-83
2023/07/24 01:52:26;;;;;;;7.33;6.53;;;;;;;23.43;47.14;97966.25;6968874;28;20256;-83
2023/07/24 01:55:48;;;;;;;8.23;7.17;;;;;;;23.23;47.68;97969.44;6973665;28;20652;-83
2023/07/24 01:59:09;;;;;;;7.67;5.93;;;;;;;23.56;47.01;97968.19;6972803;28;20311;-83
2023/07/24 02:02:32;;;;;;;8.33;6.63;;;;;;;23.88;45.42;97957.03;6973785;28;20779;-84
2023/07/24 02:05:54;;;;;;;7.10;5.73;;;;;;;23.91;45.27;97964.69;6973222;28;20215;-83
2023/07/24 02:09:15;;;;;;;8.80;7.07;;;;;;;23.43;45.83;97955.25;6973279;28;20226;-83
2023/07/24 02:12:37;;;;;;;9.20;7.10;;;;;;;23.30;46.21;97953.34;6973322;28;20299;-83
2023/07/24 02:15:58;;;;;;;9.10;6.70;;;;;;;23.25;46.45;97967.19;6973004;28;20631;-82
2023/07/24 02:19:21;;;;;;;9.40;6.70;;;;;;;23.58;45.62;97956.84;6972458;28;20367;-83
2023/07/24 02:22:42;;;;;;;10.43;7.27;;;;;;;23.70;45.73;97949.72;6954805;28;20203;-83
2023/07/24 02:26:04;;;;;;;8.63;6.60;;;;;;;23.91;45.15;97950.91;6945306;28;20208;-83
2023/07/24 02:29:25;;;;;;;7.90;6.97;;;;;;;23.07;47.96;97937.03;6945882;28;20703;-84
2023/07/24 02:32:47;;;;;;;7.63;6.73;;;;;;;23.25;48.10;97936.13;6971172;28;20259;-83
2023/07/24 02:36:10;;;;;;;8.87;6.83;;;;;;;23.09;47.75;97908.13;6985488;28;20245;-83
2023/07/24 02:39:31;;;;;;;10.23;6.87;;;;;;;23.60;47.25;97946.38;6979521;28;20331;-83
2023/07/24 02:42:53;;;;;;;8.43;6.87;;;;;;;23.13;48.24;97961.38;6972009;28;20219;-83
2023/07/24 02:46:14;;;;;;;9.57;7.13;;;;;;;22.78;48.48;97942.03;6972010;28;20207;-82
2023/07/24 02:49:35;;;;;;;8.03;6.40;;;;;;;23.08;47.29;97925.72;6971383;28;20307;-83
2023/07/24 02:52:58;;;;;;;7.47;6.47;;;;;;;22.37;49.28;97914.44;6972127;28;20215;-83
2023/07/24 02:56:20;;;;;;;9.73;6.73;;;;;;;22.39;49.68;97920.44;6971235;28;20657;-82
2023/07/24 02:59:42;;;;;;;8.97;7.03;;;;;;;23.01;48.88;97914.31;6971719;28;20229;-82
2023/07/24 03:03:03;;;;;;;9.90;7.60;;;;;;;23.24;47.81;97852.78;6971761;28;20220;-83
2023/07/24 03:06:26;;;;;;;9.07;7.17;;;;;;;23.40;48.70;97891.78;6970254;28;20270;-82
2023/07/24 03:09:49;;;;;;;8.43;7.03;;;;;;;23.00;49.90;97889.88;6973222;28;20364;-82
2023/07/24 03:13:10;;;;;;;7.60;6.40;;;;;;;22.61;49.98;97882.13;6974533;28;20310;-82
2023/07/24 03:16:32;;;;;;;10.13;7.60;;;;;;;22.24;50.07;97882.25;6973677;28;20230;-82
2023/07/24 03:19:55;;;;;;;9.23;6.57;;;;;;;23.19;48.06;97874.91;6974381;28;20648;-82
2023/07/24 03:23:16;;;;;;;7.03;6.17;;;;;;;23.32;48.02;97881.50;6975080;28;20299;-82
2023/07/24 03:26:39;;;;;;;8.30;7.00;;;;;;;22.50;50.34;97874.41;6974172;28;20359;-82
2023/07/24 03:30:01;;;;;;;9.10;7.37;;;;;;;22.24;51.18;97889.72;6974346;28;20708;-82
2023/07/24 03:33:22;;;;;;;8.10;7.10;;;;;;;22.03;52.42;97885.66;6975050;28;20663;-82
2023/07/24 03:36:44;;;;;;;7.73;6.53;;;;;;;22.14;52.02;97887.13;6972659;28;20292;-82
2023/07/24 03:40:06;;;;;;;8.30;6.70;;;;;;;22.02;52.09;97853.84;6972932;28;20237;-81
2023/07/24 03:43:29;;;;;;;8.33;6.77;;;;;;;21.53;53.34;97865.31;6972635;28;20232;-82
2023/07/24 03:46:51;;;;;;;8.03;6.40;;;;;;;21.24;53.48;97809.03;6972233;28;20303;-83
2023/07/24 03:50:12;;;;;;;10.13;7.13;;;;;;;21.62;52.78;97849.81;6972614;28;20715;-82
2023/07/24 03:53:34;;;;;;;8.97;7.00;;;;;;;22.17;51.72;97883.75;6971241;28;20206;-82
2023/07/24 03:56:55;;;;;;;9.20;7.30;;;;;;;21.92;52.58;97874.06;6972336;28;20742;-81
2023/07/24 04:00:19;;;;;;;8.83;7.33;;;;;;;22.07;51.69;97851.81;6973339;28;20288;-82
2023/07/24 04:03:40;;;;;;;8.00;6.80;;;;;;;22.32;51.60;97881.59;6976642;28;20215;-82
2023/07/24 04:07:02;;;;;;;9.83;6.93;;;;;;;22.18;51.76;97850.53;6985955;28;20908;-82
2023/07/24 04:10:24;;;;;;;8.17;6.43;;;;;;;22.13;52.07;97883.56;6987197;28;20236;-83
2023/07/24 04:13:45;;;;;;;8.27;7.00;;;;;;;22.21;52.41;97882.88;6986853;28;20207;-82
2023/07/24 04:17:08;;;;;;;12.07;6.67;;;;;;;22.51;51.25;97887.84;6987359;28;20220;-82
2023/07/24 04:20:29;;;;;;;12.67;6.93;;;;;;;21.95;52.75;97872.63;6987616;28;20626;-83
2023/07/24 04:23:51;;;;;;;9.17;7.30;;;;;;;21.92;52.83;97871.31;6988341;28;20264;-82
2023/07/24 04:27:12;;;;;;;8.60;6.63;;;;;;;21.25;54.68;97857.25;6987643;28;20210;-82
2023/07/24 04:30:34;;;;;;;9.47;6.87;;;;;;;22.19;52.27;97852.16;6987933;28;20224;-82
2023/07/24 04:33:57;;;;;;;10.63;7.60;;;;;;;22.42;51.69;97851.16;6988322;28;20205;-82
2023/07/24 04:37:18;;;;;;;9.33;6.60;;;;;;;22.68;51.25;97855.09;6987404;28;20207;-82
2023/07/24 04:40:40;;;;;;;7.30;6.33;;;;;;;22.90;50.03;97811.16;6989270;28;20236;-82
2023/07/24 04:44:01;;;;;;;10.33;7.10;;;;;;;23.04;50.09;97824.91;6987000;28;20213;-82
2023/07/24 04:47:23;;;;;;;8.43;7.10;;;;;;;23.01;49.70;97812.59;6985397;28;20268;-82
2023/07/24 04:50:46;;;;;;;8.13;6.90;;;;;;;22.68;50.63;97832.28;6987695;28;20225;-82
2023/07/24 04:54:07;;;;;;;8.43;6.93;;;;;;;22.79;51.39;97818.03;6981584;28;20246;-82
2023/07/24 04:57:29;;;;;;;10.10;7.23;;;;;;;23.08;50.17;97837.72;6982038;28;20254;-82
2023/07/24 05:00:50;;;;;;;9.70;6.97;;;;;;;22.81;51.08;97840.53;6980051;28;20768;-83
2023/07/24 05:04:12;;;;;;;9.30;7.57;;;;;;;22.50;51.46;97808.47;6982186;28;20348;-83
2023/07/24 05:07:35;;;;;;;9.93;7.97;;;;;;;22.92;51.35;97827.38;6973404;28;20706;-83
2023/07/24 05:10:56;;;;;;;9.10;7.03;;;;;;;23.34;50.47;97818.75;6975927;28;20261;-83
2023/07/24 05:14:18;;;;;;;9.33;6.77;;;;;;;23.50;50.15;97825.53;6980565;28;20678;-83
2023/07/24 05:17:39;;;;;;;9.23;7.13;;;;;;;23.97;48.73;97823.00;6975863;28;20334;-83
2023/07/24 05:21:01;;;;;;;8.70;7.13;;;;;;;23.76;49.73;97837.53;6972644;28;20769;-83
2023/07/24 05:24:23;;;;;;;8.43;6.73;;;;;;;23.78;50.20;97822.31;6972784;28;20210;-82
2023/07/24 05:27:45;;;;;;;9.97;7.27;;;;;;;23.43;51.20;97814.94;6972957;28;20330;-83
2023/07/24 05:31:07;;;;;;;8.77;6.53;;;;;;;23.56;50.61;97811.34;6972970;28;20845;-82
2023/07/24 05:34:29;;;;;;;9.50;6.90;;;;;;;24.09;50.41;97827.91;6972429;28;20562;-83
2023/07/24 05:37:50;;;;;;;8.00;6.37;;;;;;;24.51;49.97;97830.88;6971901;28;20276;-83
2023/07/24 05:41:13;;;;;;;8.37;7.20;;;;;;;24.72;48.26;97811.84;6972236;28;20386;-83
2023/07/24 05:44:37;;;;;;;10.43;7.70;;;;;;;24.74;47.08;97837.97;6972691;28;20617;-83
2023/07/24 05:47:58;;;;;;;10.40;8.40;;;;;;;24.99;45.71;97839.16;6972614;28;20241;-83
2023/07/24 05:51:21;;;;;;;11.43;7.83;;;;;;;25.02;44.55;97777.84;6947554;28;20226;-82
2023/07/24 05:54:42;;;;;;;9.27;7.30;;;;;;;25.73;43.91;97855.34;6971766;28;20364;-83
2023/07/24 05:58:05;;;;;;;9.83;7.50;;;;;;;25.57;46.30;97858.94;6977047;28;20301;-84
2023/07/24 06:01:26;;;;;;;10.23;7.83;;;;;;;25.53;46.53;97864.28;6980388;28;20274;-83
2023/07/24 06:04:48;;;;;;;9.60;7.23;;;;;;;25.28;47.28;97870.59;6983583;28;20289;-83
2023/07/24 06:08:10;;;;;;;11.03;7.37;;;;;;;25.29;46.98;97880.50;6985047;28;20252;-82
2023/07/24 06:11:32;;;;;;;9.77;7.60;;;;;;;24.86;48.28;97859.41;6985306;28;20296;-84
2023/07/24 06:14:55;;;;;;;9.77;7.17;;;;;;;24.75;48.88;97885.66;6980757;28;20264;-83
2023/07/24 06:18:17;;;;;;;11.63;7.43;;;;;;;23.70;50.96;97878.13;6979167;28;20235;-83
2023/07/24 06:21:38;;;;;;;11.33;7.93;;;;;;;24.72;49.25;97872.50;6982083;28;20253;-84
2023/07/24 06:25:00;;;;;;;10.47;6.90;;;;;;;25.23;48.23;97873.47;6980177;28;20241;-81
2023/07/24 06:28:21;;;;;;;9.63;7.93;;;;;;;25.50;47.93;97884.28;6977630;28;20614;-83
2023/07/24 06:31:44;;;;;;;11.87;7.73;;;;;;;25.36;47.93;97871.75;6979001;28;20261;-83
2023/07/24 06:35:06;;;;;;;11.33;8.33;;;;;;;24.32;49.98;97840.50;6980516;28;20200;-83
2023/07/24 06:38:28;;;;;;;11.10;7.70;;;;;;;25.03;48.66;97849.25;6977856;28;20285;-83
2023/07/24 06:41:49;;;;;;;10.47;7.90;;;;;;;25.06;48.93;97839.50;6971645;28;20366;-82
2023/07/24 06:45:11;;;;;;;10.37;7.97;;;;;;;25.28;46.12;97814.59;6971957;28;20248;-82
2023/07/24 06:48:34;;;;;;;9.40;8.20;;;;;;;25.06;46.11;97833.97;6971372;28;20210;-82
2023/07/24 06:51:55;;;;;;;9.13;7.77;;;;;;;25.11;45.53;97818.09;6972127;28;20291;-82
2023/07/24 06:55:17;;;;;;;8.93;7.37;;;;;;;25.71;44.05;97801.59;6972238;28;20713;-82
2023/07/24 06:58:38;;;;;;;9.17;7.53;;;;;;;26.35;44.67;97815.13;6972448;28;20606;-82
2023/07/24 07:02:00;;;;;;;10.03;7.67;;;;;;;26.69;43.86;97828.03;6957668;28;20298;-81
2023/07/24 07:05:23;;;;;;;8.60;7.07;;;;;;;26.94;43.51;97833.44;6964568;28;20293;-82
2023/07/24 07:08:44;;;;;;;12.77;7.87;;;;;;;26.94;42.28;97836.22;6986259;28;20210;-82
2023/07/24 07:12:07;;;;;;;11.30;7.60;;;;;;;27.03;41.69;97834.22;6976297;28;20289;-82
2023/07/24 07:15:28;;;;;;;8.53;7.23;;;;;;;26.41;42.02;97804.69;6975890;28;20242;-82
2023/07/24 07:18:50;;;;;;;9.23;7.70;;;;;;;26.55;42.77;97811.66;6975149;28;20789;-82
2023/07/24 07:22:13;;;;;;;9.67;8.00;;;;;;;26.83;41.54;97828.63;6975641;28;20376;-83
2023/07/24 07:25:34;;;;;;;12.27;8.33;;;;;;;26.64;41.65;97820.75;6975015;28;20297;-82
2023/07/24 07:28:57;;;;;;;9.17;7.37;;;;;;;26.58;42.27;97829.53;6978520;28;20311;-83
2023/07/24 07:32:18;;;;;;;9.53;7.90;;;;;;;26.79;42.64;97863.63;6978333;28;20662;-84
2023/07/24 07:35:40;;;;;;;9.67;7.50;;;;;;;26.97;41.93;97843.84;6977006;28;20344;-83
2023/07/24 07:39:03;;;;;;;9.37;7.23;;;;;;;26.33;43.60;97878.22;6978400;28;20321;-82
2023/07/24 07:42:24;;;;;;;11.30;7.87;;;;;;;26.16;44.07;97881.03;6971830;28;20603;-82
2023/07/24 07:45:46;;;;;;;11.93;7.23;;;;;;;26.17;44.18;97873.53;6975902;28;20301;-82
2023/07/24 07:49:07;;;;;;;11.17;7.43;;;;;;;25.69;45.04;97851.63;6974437;28;20542;-81
2023/07/24 07:52:29;;;;;;;9.37;8.10;;;;;;;26.19;44.68;97898.91;6971164;28;20202;-83
2023/07/24 07:55:57;;;;;;;9.43;7.60;;;;;;;26.41;44.03;97895.91;6975792;28;20368;-82
2023/07/24 07:59:19;;;;;;;9.60;7.30;;;;;;;26.46;43.99;97891.03;6983992;28;20236;-82
2023/07/24 08:02:40;;;;;;;9.63;7.13;;;;;;;26.63;43.57;97887.44;6989846;28;20276;-83
2023/07/24 08:06:02;;;;;;;11.77;7.83;;;;;;;26.88;43.02;97900.34;6992217;28;20732;-82
2023/07/24 08:09:24;;;;;;;10.20;7.83;;;;;;;26.54;44.17;97912.34;6983474;28;20232;-82
2023/07/24 08:12:46;;;;;;;9.93;7.47;;;;;;;26.38;44.70;97927.81;6990646;28;20202;-82
2023/07/24 08:16:18;;;;;;;10.23;7.80;;;;;;;26.66;44.74;97931.81;6991541;28;20218;-83
2023/07/24 08:19:39;;;;;;;10.63;7.47;;;;;;;26.82;43.69;97880.38;6994824;28;20309;-83
2023/07/24 08:23:01;;;;;;;13.70;7.80;;;;;;;26.65;44.44;97926.66;6992619;28;20232;-83
2023/07/24 08:26:24;;;;;;;9.13;7.17;;;;;;;27.51;43.81;97920.41;6993837;28;20199;-83
2023/07/24 08:29:47;;;;;;;10.03;8.00;;;;;;;26.67;46.47;97891.16;6997115;28;20214;-84
2023/07/24 08:33:08;;;;;;;12.50;7.50;;;;;;;26.90;48.02;97918.25;6991662;28;20206;-84
2023/07/24 08:36:30;;;;;;;9.33;8.30;;;;;;;26.61;48.54;97898.81;6987889;28;20299;-83
2023/07/24 08:39:51;;;;;;;10.57;8.10;;;;;;;26.94;48.35;97896.25;6976899;28;20268;-83
2023/07/24 08:43:13;;;;;;;11.37;7.13;;;;;;;27.19;46.40;97879.56;6978229;28;20362;-83
2023/07/24 08:46:38;;;;;;;11.77;7.40;;;;;;;26.41;48.07;97868.28;6980823;28;20281;-83
2023/07/24 08:50:00;;;;;;;13.47;8.37;;;;;;;26.72;49.86;97880.72;6988438;28;20368;-82
2023/07/24 08:53:22;;;;;;;9.37;7.40;;;;;;;26.95;48.36;97848.09;6992824;28;20934;-82
2023/07/24 08:56:47;;;;;;;9.63;7.70;;;;;;;27.03;49.20;97838.94;6991186;28;20202;-82
2023/07/24 09:00:09;;;;;;;16.17;7.77;;;;;;;27.07;49.32;97848.97;6991046;28;20252;-82
2023/07/24 09:03:33;;;;;;;9.97;7.63;;;;;;;26.84;50.25;97825.50;6991378;28;20263;-82
2023/07/24 09:06:57;;;;;;;10.30;6.90;;;;;;;26.56;50.85;97823.53;6989449;28;20202;-83
2023/07/24 09:10:25;;;;;;;10.97;8.23;;;;;;;26.55;51.88;97808.09;6988508;28;20315;-83
2023/07/24 09:13:46;;;;;;;9.10;7.90;;;;;;;26.51;51.77;97768.38;6987386;28;20236;-82
2023/07/24 09:17:09;;;;;;;9.83;7.33;;;;;;;27.29;51.49;97823.81;6983840;28;20249;-88
2023/07/24 09:20:39;;;;;;;11.53;7.67;;;;;;;27.17;51.76;97832.03;6976341;28;20365;-85
2023/07/24 09:24:10;;;;;;;10.13;7.10;;;;;;;26.79;51.50;97820.16;6981301;28;20305;-87
2023/07/24 09:27:32;;;;;;;10.83;7.20;;;;;;;27.22;50.39;97822.72;6980747;28;20215;-84
2023/07/24 09:30:55;;;;;;;7.60;6.83;;;;;;;27.51;49.39;97817.94;6982991;28;20234;-84
2023/07/24 09:34:18;;;;;;;6.97;6.03;;;;;;;27.24;49.06;97818.47;6958131;28;20275;-84
2023/07/24 09:37:41;;;;;;;9.57;6.27;;;;;;;27.49;48.81;97806.38;6964344;28;20200;-84
2023/07/24 09:41:03;;;;;;;7.93;5.97;;;;;;;27.83;47.29;97786.72;6983530;28;20251;-84
2023/07/24 09:44:27;;;;;;;9.47;5.93;;;;;;;27.65;46.70;97796.31;6978998;28;20255;-85
2023/07/24 09:47:49;;;;;;;6.60;5.60;;;;;;;27.39;46.45;97795.72;6977854;28;20206;-83
2023/07/24 09:51:13;;;;;;;6.73;6.03;;;;;;;27.35;48.01;97810.56;6977386;28;20488;-86
2023/07/24 09:54:41;;;;;;;7.63;5.77;;;;;;;27.36;45.57;97748.53;6973989;28;20196;-86
2023/07/24 09:58:02;;;;;;;8.53;6.13;;;;;;;27.18;45.89;97821.78;6974915;28;20198;-85
2023/07/24 10:01:24;;;;;;;7.10;5.57;;;;;;;27.10;45.91;97851.09;6975593;28;20257;-85
2023/07/24 10:04:46;;;;;;;7.47;6.73;;;;;;;27.17;48.04;97875.50;6976046;28;20200;-85
2023/07/24 10:08:08;;;;;;;7.87;6.23;;;;;;;26.99;48.83;97876.69;6974576;28;20259;-85
2023/07/24 10:11:30;;;;;;;6.60;5.63;;;;;;;26.68;49.38;97882.56;6974994;28;20718;-85
2023/07/24 10:14:52;;;;;;;9.53;6.80;;;;;;;27.28;48.87;97896.09;6975251;28;20290;-84
2023/07/24 10:18:16;;;;;;;7.83;6.13;;;;;;;26.07;51.14;97874.69;6974997;28;20210;-84
2023/07/24 10:21:37;;;;;;;7.10;6.20;;;;;;;26.66;51.50;97928.28;6975329;28;20320;-84
2023/07/24 10:24:59;;;;;;;10.00;6.53;;;;;;;26.34;51.86;97887.31;6975839;28;20622;-84
2023/07/24 10:28:32;;;;;;;6.67;5.73;;;;;;;26.71;52.16;97928.09;6991828;28;20399;-84
2023/07/24 10:31:55;;;;;;;8.50;6.03;;;;;;;27.20;50.24;97927.44;6998472;28;20254;-84
2023/07/24 10:35:17;;;;;;;9.33;6.97;;;;;;;26.78;51.36;97920.88;6994960;28;20201;-84
2023/07/24 10:38:41;;;;;;;8.53;6.07;;;;;;;27.05;50.29;97930.72;6980164;28;20199;-84
2023/07/24 10:42:06;;;;;;;7.70;6.00;;;;;;;26.81;51.11;97923.00;6966478;28;20750;-82
2023/07/24 10:45:42;;;;;;;8.13;6.63;;;;;;;26.74;54.30;97935.72;6945204;28;20206;-84
2023/07/24 10:49:04;;;;;;;7.93;7.03;;;;;;;26.27;52.57;97848.31;6951973;28;20359;-86
2023/07/24 10:52:28;;;;;;;10.57;6.63;;;;;;;26.74;53.34;97932.94;6986370;28;20237;-88
2023/07/24 10:55:51;;;;;;;7.83;6.27;;;;;;;26.90;53.51;97951.44;6973896;28;20242;-85
2023/07/24 10:59:14;;;;;;;7.17;6.40;;;;;;;26.57;55.13;97967.00;6971356;28;20279;-83
2023/07/24 11:02:37;;;;;;;10.33;6.60;;;;;;;26.24;56.65;97979.69;6971498;28;20229;-85
2023/07/24 11:05:59;;;;;;;11.07;7.20;;;;;;;26.09;57.89;97980.19;6966987;28;20296;-83
2023/07/24 11:09:21;;;;;;;8.53;6.37;;;;;;;25.78;58.67;97984.97;6979029;28;20318;-84
2023/07/24 11:12:42;;;;;;;9.13;6.70;;;;;;;25.37;58.23;97990.06;6999024;28;20242;-85
2023/07/24 11:16:08;;;;;;;7.83;6.83;;;;;;;25.52;58.60;97972.25;6987314;28;20674;-85
2023/07/24 11:19:31;;;;;;;8.30;6.90;;;;;;;25.26;57.97;97971.38;6971203;28;20229;-85
2023/07/24 11:22:53;;;;;;;7.67;6.80;;;;;;;25.02;57.98;97938.63;6971068;28;20321;-85
2023/07/24 11:26:15;;;;;;;9.63;6.43;;;;;;;24.94;58.62;97891.72;6971328;28;20333;-84
2023/07/24 11:29:36;;;;;;;10.07;6.37;;;;;;;24.96;59.82;97906.00;6971501;28;20313;-84
2023/07/24 11:32:59;;;;;;;9.53;6.20;;;;;;;24.73;60.20;97872.16;6972827;28;20296;-84
2023/07/24 11:36:22;;;;;;;7.03;6.30;;;;;;;24.40;61.16;97881.88;6971639;28;20210;-85
2023/07/24 11:39:44;;;;;;;8.93;7.00;;;;;;;24.10;62.29;97868.09;6972239;28;20230;-84
2023/07/24 11:43:06;;;;;;;9.90;6.50;;;;;;;23.97;62.87;97800.13;6972579;28;20377;-84
2023/07/24 11:46:31;;;;;;;9.43;6.83;;;;;;;24.04;62.71;97767.44;6971281;28;20239;-83
2023/07/24 11:50:00;;;;;;;9.17;6.30;;;;;;;24.51;61.06;97797.00;6972311;28;20232;-84
2023/07/24 11:53:24;;;;;;;8.17;6.63;;;;;;;24.97;60.76;97803.66;6978338;28;20264;-84
2023/07/24 11:56:45;;;;;;;7.07;6.37;;;;;;;25.69;59.69;97812.16;6980316;28;20210;-84
2023/07/24 12:00:19;;;;;;;9.00;6.37;;;;;;;25.92;57.53;97758.38;6981839;28;20268;-84
2023/07/24 12:03:41;;;;;;;10.33;6.77;;;;;;;26.67;55.74;97797.13;6982749;28;20314;-84
2023/07/24 12:07:08;;;;;;;6.70;5.93;;;;;;;26.53;54.85;97780.75;6975358;28;20212;-84
2023/07/24 12:10:31;;;;;;;7.93;6.40;;;;;;;25.97;55.64;97817.03;6976403;28;20219;-83
2023/07/24 12:13:53;;;;;;;7.07;6.00;;;;;;;26.17;54.87;97846.72;6976245;28;20207;-84
2023/07/24 12:17:19;;;;;;;7.23;5.83;;;;;;;26.36;55.02;97822.28;6975365;28;20209;-84
2023/07/24 12:20:41;;;;;;;8.17;7.07;;;;;;;25.89;55.62;97808.72;6976226;28;20687;-83
2023/07/24 12:24:02;;;;;;;8.90;6.90;;;;;;;25.91;56.45;97826.63;6975832;28;20716;-84
2023/07/24 12:27:25;;;;;;;7.83;7.03;;;;;;;25.83;56.81;97843.19;6975958;28;20569;-84
2023/07/24 12:30:49;;;;;;;10.40;7.53;;;;;;;25.79;56.18;97831.94;6973665;28;20355;-84
2023/07/24 12:34:10;;;;;;;7.83;6.90;;;;;;;25.58;56.82;97830.19;6975785;28;20210;-84
2023/07/24 12:37:32;;;;;;;8.93;6.73;;;;;;;26.21;55.58;97847.69;6983564;28;20234;-84
2023/07/24 12:40:53;;;;;;;9.00;6.77;;;;;;;26.63;55.87;97845.94;6985827;28;20238;-84
2023/07/24 12:44:16;;;;;;;7.47;6.37;;;;;;;26.47;55.62;97792.31;6977134;28;20233;-84
2023/07/24 12:47:38;;;;;;;9.00;6.57;;;;;;;25.80;56.32;97827.25;6975010;28;20302;-84
2023/07/24 12:51:00;;;;;;;14.30;5.87;;;;;;;25.90;56.12;97824.97;6975728;28;20292;-84
2023/07/24 12:54:23;;;;;;;8.17;6.40;;;;;;;25.74;56.79;97817.50;6975408;28;20640;-83
2023/07/24 12:57:45;;;;;;;8.13;6.30;;;;;;;26.55;53.67;97817.19;6974707;28;20214;-83
2023/07/24 13:01:08;;;;;;;7.40;5.97;;;;;;;26.78;53.90;97817.75;6975281;28;20219;-83
2023/07/24 13:04:29;;;;;;;8.70;5.90;;;;;;;27.34;52.08;97806.19;6975199;28;20233;-84
2023/07/24 13:07:51;;;;;;;6.53;5.90;;;;;;;27.03;51.97;97791.88;6975537;28;20301;-83
2023/07/24 13:11:12;;;;;;;7.07;6.30;;;;;;;27.22;51.79;97790.31;6974637;28;20313;-82
2023/07/24 13:14:34;;;;;;;9.27;6.03;;;;;;;26.81;51.10;97767.28;6974968;28;20240;-85
2023/07/24 13:17:57;;;;;;;7.47;6.53;;;;;;;27.38;51.15;97773.91;6974351;28;20246;-83
2023/07/24 13:21:18;;;;;;;8.17;7.13;;;;;;;28.09;49.16;97778.97;6975120;28;20358;-84
2023/07/24 13:24:40;;;;;;;7.17;6.17;;;;;;;26.96;51.00;97775.81;6975133;28;20564;-84
2023/07/24 13:28:01;;;;;;;6.60;5.90;;;;;;;27.41;50.62;97776.00;6960397;28;20241;-83
2023/07/24 13:31:23;;;;;;;6.57;5.73;;;;;;;27.61;49.45;97764.91;6973727;28;20235;-83
2023/07/24 13:34:47;;;;;;;8.13;5.97;;;;;;;27.00;50.11;97701.22;6975913;28;20265;-83
2023/07/24 13:38:09;;;;;;;6.80;6.13;;;;;;;28.36;49.39;97756.13;6973656;28;20678;-83
2023/07/24 13:41:30;;;;;;;8.70;6.10;;;;;;;28.28;48.24;97748.72;6973163;28;20718;-83
2023/07/24 13:44:52;;;;;;;7.70;5.73;;;;;;;28.28;49.64;97745.97;6972674;28;20292;-83
2023/07/24 13:48:13;;;;;;;7.10;5.77;;;;;;;28.66;48.27;97707.63;6984281;28;20289;-83
2023/07/24 13:51:36;;;;;;;6.33;5.50;;;;;;;28.23;48.35;97710.13;6973129;28;20273;-83
2023/07/24 13:54:57;;;;;;;7.47;5.43;;;;;;;28.56;47.73;97715.59;6984980;28;20203;-84
2023/07/24 13:58:19;;;;;;;6.43;5.83;;;;;;;27.96;47.48;97693.38;6974303;28;20695;-84
2023/07/24 14:01:40;;;;;;;7.57;5.20;;;;;;;28.41;48.16;97691.31;6974589;28;20314;-83
2023/07/24 14:05:02;;;;;;;5.80;5.30;;;;;;;28.80;46.24;97669.22;6974181;28;20240;-83
2023/07/24 14:08:25;;;;;;;6.30;5.37;;;;;;;28.96;45.74;97680.44;6984233;28;20250;-83
2023/07/24 14:11:46;;;;;;;6.10;5.50;;;;;;;29.35;43.95;97665.72;6973843;28;20285;-83
2023/07/24 14:15:09;;;;;;;7.83;4.70;;;;;;;29.36;45.19;97664.56;6973545;28;20848;-84
2023/07/24 14:18:30;;;;;;;5.47;4.97;;;;;;;29.77;44.42;97678.06;6973032;28;20994;-84
2023/07/24 14:21:52;;;;;;;5.47;4.67;;;;;;;29.16;43.05;97655.28;6973429;28;20299;-84
2023/07/24 14:25:15;;;;;;;5.50;4.83;;;;;;;28.91;44.40;97684.22;6947696;28;20322;-83
2023/07/24 14:28:36;;;;;;;4.60;4.20;;;;;;;29.00;44.00;97662.72;6946190;28;20291;-84
2023/07/24 14:31:58;;;;;;;4.97;4.43;;;;;;;28.97;44.31;97654.28;6966891;28;20198;-84
2023/07/24 14:35:20;;;;;;;5.07;4.57;;;;;;;28.76;43.41;97668.31;6972359;28;20264;-84
2023/07/24 14:38:42;;;;;;;5.10;4.53;;;;;;;28.64;44.60;97678.59;6972269;28;20245;-84
2023/07/24 14:42:05;;;;;;;6.30;4.40;;;;;;;28.85;44.35;97657.06;6972913;28;20224;-84
2023/07/24 14:45:27;;;;;;;5.00;4.50;;;;;;;29.02;44.82;97659.59;6973283;28;20872;-84
2023/07/24 14:48:50;;;;;;;8.70;4.80;;;;;;;28.84;45.17;97664.56;6970785;28;20250;-84
2023/07/24 14:52:11;;;;;;;4.90;4.37;;;;;;;28.57;44.97;97642.31;6974155;28;20201;-82
2023/07/24 14:55:33;;;;;;;5.40;4.33;;;;;;;27.91;46.08;97652.03;6972686;28;20207;-84
2023/07/24 14:58:56;;;;;;;4.80;4.20;;;;;;;27.74;46.76;97644.69;6972480;28;20234;-85
2023/07/24 15:02:17;;;;;;;5.77;4.20;;;;;;;27.75;46.57;97648.25;6971972;28;20241;-84
2023/07/24 15:05:38;;;;;;;4.80;3.80;;;;;;;28.07;45.97;97642.66;6970930;28;20287;-84
2023/07/24 15:09:00;;;;;;;4.57;3.87;;;;;;;27.95;45.49;97612.19;6972006;28;20277;-84
2023/07/24 15:12:22;;;;;;;5.40;3.50;;;;;;;27.98;45.88;97660.56;6973257;28;20707;-84
2023/07/24 15:15:45;;;;;;;4.13;3.73;;;;;;;27.98;45.45;97642.00;6948058;28;20254;-84
2023/07/24 15:19:06;;;;;;;5.47;4.00;;;;;;;27.83;46.76;97661.25;6944304;28;20277;-83
2023/07/24 15:22:28;;;;;;;3.70;3.40;;;;;;;27.07;46.73;97682.94;6944591;28;20215;-84
2023/07/24 15:25:49;;;;;;;4.00;3.60;;;;;;;26.82;47.16;97685.91;6944810;28;20233;-84
2023/07/24 15:29:11;;;;;;;4.17;3.77;;;;;;;27.09;46.98;97682.63;6944400;28;20262;-84
2023/07/24 15:32:34;;;;;;;4.30;3.80;;;;;;;27.04;47.10;97668.97;6944447;28;20207;-84
2023/07/24 15:35:55;;;;;;;6.80;4.00;;;;;;;27.12;46.79;97662.56;6945320;28;20214;-84
2023/07/24 15:39:17;;;;;;;4.03;2.97;;;;;;;27.15;46.95;97693.16;6944894;28;20315;-83
2023/07/24 15:42:38;;;;;;;5.20;3.57;;;;;;;26.26;48.31;97667.84;6945403;28;20357;-84
2023/07/24 15:46:00;;;;;;;5.27;3.50;;;;;;;26.13;49.29;97684.69;6944521;28;20226;-84
2023/07/24 15:49:23;;;;;;;4.50;3.67;;;;;;;25.88;49.90;97685.56;6944271;28;20369;-85